createdAt,value
2022-12-31T00:01:37.192Z,1.78
2022-12-31T00:04:05.768Z,1.71
2022-12-31T00:06:36.354Z,1.63
2022-12-31T00:09:08.938Z,1.57
2022-12-31T00:11:38.517Z,1.53
2022-12-31T00:14:08.142Z,1.50
2022-12-31T00:16:41.497Z,1.49
2022-12-31T00:19:12.286Z,1.48
2022-12-31T00:21:40.773Z,1.51
2022-12-31T00:24:11.380Z,1.51
2022-12-31T00:26:39.785Z,1.51
2022-12-31T00:29:08.297Z,1.53
2022-12-31T00:31:39.134Z,1.53
2022-12-31T00:34:07.776Z,1.53
2022-12-31T00:36:39.414Z,1.50
2022-12-31T00:39:08.674Z,1.49
2022-12-31T00:41:37.403Z,1.48
2022-12-31T00:44:06.046Z,1.49
2022-12-31T00:49:02.332Z,1.49
2022-12-31T00:51:30.693Z,1.53
2022-12-31T00:53:59.503Z,1.54
2022-12-31T00:56:31.072Z,1.57
2022-12-31T00:59:00.170Z,1.56
2022-12-31T01:01:36.033Z,1.54
2022-12-31T01:04:12.826Z,1.50
2022-12-31T01:06:42.820Z,1.44
2022-12-31T01:09:14.585Z,1.40
2022-12-31T01:11:42.982Z,1.34
2022-12-31T01:14:18.259Z,1.30
2022-12-31T01:16:53.217Z,1.27
2022-12-31T01:19:29.285Z,1.22
2022-12-31T01:21:57.864Z,1.20
2022-12-31T01:24:26.218Z,1.17
2022-12-31T01:26:57.817Z,1.15
2022-12-31T01:29:28.009Z,1.13
2022-12-31T01:31:56.729Z,1.12
2022-12-31T01:34:25.203Z,1.09
2022-12-31T01:36:53.557Z,1.07
2022-12-31T01:39:22.033Z,1.06
2022-12-31T01:41:50.320Z,1.06
2022-12-31T01:44:27.795Z,1.05
2022-12-31T01:47:08.312Z,1.05
2022-12-31T01:49:58.578Z,1.05
2022-12-31T01:52:40.236Z,1.03
2022-12-31T01:55:33.243Z,1.02
2022-12-31T01:58:46.321Z,1.01
2022-12-31T02:01:19.485Z,0.98
2022-12-31T02:03:47.820Z,0.96
2022-12-31T02:06:23.103Z,0.94
2022-12-31T02:08:51.827Z,0.93
2022-12-31T02:11:29.723Z,0.93
2022-12-31T02:14:04.659Z,0.90
2022-12-31T02:16:55.636Z,0.88
2022-12-31T02:19:55.697Z,0.84
2022-12-31T02:22:51.842Z,0.77
2022-12-31T02:26:05.694Z,0.70
2022-12-31T02:28:57.333Z,0.66
2022-12-31T02:31:33.035Z,0.61
2022-12-31T02:34:12.155Z,0.58
2022-12-31T02:36:45.253Z,0.56
2022-12-31T02:39:14.843Z,0.53
2022-12-31T02:41:52.631Z,0.51
2022-12-31T02:44:33.881Z,0.49
2022-12-31T02:47:08.133Z,0.49
2022-12-31T02:50:13.854Z,0.52
2022-12-31T02:52:53.058Z,0.56
2022-12-31T02:55:35.521Z,0.58
2022-12-31T02:58:14.445Z,0.60
2022-12-31T03:01:10.391Z,0.60
2022-12-31T03:03:39.525Z,0.63
2022-12-31T03:06:10.228Z,0.65
2022-12-31T03:09:02.258Z,0.68
2022-12-31T03:11:49.792Z,0.73
2022-12-31T03:14:18.296Z,0.77
2022-12-31T03:16:46.973Z,0.80
2022-12-31T03:19:33.702Z,0.84
2022-12-31T03:22:20.559Z,0.86
2022-12-31T03:25:07.370Z,0.88
2022-12-31T03:27:35.771Z,0.92
2022-12-31T03:30:05.256Z,0.95
2022-12-31T03:32:34.167Z,0.99
2022-12-31T03:35:02.858Z,1.02
2022-12-31T03:37:31.202Z,1.04
2022-12-31T03:39:59.474Z,1.07
2022-12-31T03:42:27.794Z,1.07
2022-12-31T03:44:56.094Z,1.07
2022-12-31T03:47:24.231Z,1.06
2022-12-31T03:49:53.323Z,1.04
2022-12-31T03:52:21.861Z,1.04
2022-12-31T03:54:50.996Z,1.02
2022-12-31T03:57:19.603Z,1.03
2022-12-31T03:59:47.984Z,1.06
2022-12-31T04:02:16.715Z,1.08
2022-12-31T04:04:45.150Z,1.11
2022-12-31T04:07:13.551Z,1.14
2022-12-31T04:09:42.386Z,1.15
2022-12-31T04:12:10.770Z,1.18
2022-12-31T04:14:38.952Z,1.22
2022-12-31T04:17:07.363Z,1.25
2022-12-31T04:19:35.674Z,1.29
2022-12-31T04:22:04.643Z,1.30
2022-12-31T04:24:32.980Z,1.31
2022-12-31T04:27:07.264Z,1.33
2022-12-31T04:29:37.334Z,1.35
2022-12-31T04:32:08.291Z,1.36
2022-12-31T04:34:36.818Z,1.37
2022-12-31T04:37:05.180Z,1.39
2022-12-31T04:39:33.456Z,1.41
2022-12-31T04:42:01.782Z,1.43
2022-12-31T04:44:30.123Z,1.44
2022-12-31T04:46:58.437Z,1.46
2022-12-31T04:49:26.774Z,1.48
2022-12-31T04:51:55.016Z,1.52
2022-12-31T04:54:23.360Z,1.53
2022-12-31T04:56:51.656Z,1.55
2022-12-31T04:59:19.858Z,1.56
2022-12-31T05:01:48.195Z,1.56
2022-12-31T05:04:16.560Z,1.54
2022-12-31T05:06:44.850Z,1.50
2022-12-31T05:09:13.032Z,1.49
2022-12-31T05:11:41.261Z,1.50
2022-12-31T05:14:09.470Z,1.50
2022-12-31T05:16:38.292Z,1.49
2022-12-31T05:19:09.668Z,1.49
2022-12-31T05:21:38.863Z,1.47
2022-12-31T05:24:07.904Z,1.47
2022-12-31T05:26:36.259Z,1.49
2022-12-31T05:29:04.591Z,1.49
2022-12-31T05:31:32.910Z,1.49
2022-12-31T05:34:02.113Z,1.49
2022-12-31T05:36:30.529Z,1.51
2022-12-31T05:38:58.830Z,1.52
2022-12-31T05:41:27.077Z,1.51
2022-12-31T05:43:55.277Z,1.52
2022-12-31T05:46:23.637Z,1.52
2022-12-31T05:48:52.035Z,1.53
2022-12-31T05:51:20.307Z,1.54
2022-12-31T05:53:48.584Z,1.57
2022-12-31T05:56:17.898Z,1.57
2022-12-31T05:58:46.167Z,1.57
2022-12-31T06:01:14.559Z,1.58
2022-12-31T06:03:42.809Z,1.59
2022-12-31T06:06:11.215Z,1.60
2022-12-31T06:08:39.590Z,1.61
2022-12-31T06:11:07.946Z,1.62
2022-12-31T06:13:36.787Z,1.60
2022-12-31T06:16:07.717Z,1.59
2022-12-31T06:18:35.891Z,1.56
2022-12-31T06:21:04.576Z,1.54
2022-12-31T06:23:32.979Z,1.52
2022-12-31T06:26:06.213Z,1.49
2022-12-31T06:28:35.241Z,1.48
2022-12-31T06:31:06.693Z,1.47
2022-12-31T06:33:35.787Z,1.47
2022-12-31T06:36:08.022Z,1.49
2022-12-31T06:38:38.977Z,1.52
2022-12-31T06:41:10.390Z,1.55
2022-12-31T06:43:40.233Z,1.59
2022-12-31T06:46:13.229Z,1.62
2022-12-31T06:48:44.718Z,1.67
2022-12-31T06:51:18.090Z,1.73
2022-12-31T06:53:49.624Z,1.78
2022-12-31T06:56:33.949Z,1.84
2022-12-31T06:59:05.031Z,1.90
2022-12-31T07:01:42.411Z,1.92
2022-12-31T07:04:46.031Z,1.96
2022-12-31T07:07:26.870Z,2.00
2022-12-31T07:10:16.374Z,2.02
2022-12-31T07:13:03.927Z,2.05
2022-12-31T07:16:00.306Z,2.07
2022-12-31T07:18:40.978Z,2.11
2022-12-31T07:21:15.767Z,2.14
2022-12-31T07:23:44.533Z,2.19
2022-12-31T07:26:29.996Z,2.25
2022-12-31T07:29:12.923Z,2.29
2022-12-31T07:32:15.608Z,2.34
2022-12-31T07:35:13.872Z,2.37
2022-12-31T07:38:34.183Z,2.39
2022-12-31T07:41:34.184Z,2.42
2022-12-31T07:44:34.950Z,2.49
2022-12-31T07:47:06.102Z,2.54
2022-12-31T07:49:44.798Z,2.57
2022-12-31T07:52:13.826Z,2.61
2022-12-31T07:54:42.183Z,2.66
2022-12-31T07:57:13.717Z,2.68
2022-12-31T07:59:52.282Z,2.71
2022-12-31T08:03:08.824Z,2.70
2022-12-31T08:06:05.075Z,2.68
2022-12-31T08:09:01.543Z,2.68
2022-12-31T08:11:57.427Z,2.65
2022-12-31T08:14:29.355Z,2.64
2022-12-31T08:16:58.283Z,2.65
2022-12-31T08:19:31.629Z,2.63
2022-12-31T08:22:27.230Z,2.57
2022-12-31T08:25:17.328Z,2.53
2022-12-31T08:28:52.254Z,2.47
2022-12-31T08:31:28.549Z,2.45
2022-12-31T08:34:14.984Z,2.46
2022-12-31T08:37:03.499Z,2.46
2022-12-31T08:39:50.089Z,2.51
2022-12-31T08:42:43.338Z,2.54
2022-12-31T08:45:43.253Z,2.60
2022-12-31T08:48:19.772Z,2.66
2022-12-31T08:50:49.843Z,2.72
2022-12-31T08:53:25.069Z,2.81
2022-12-31T08:56:10.610Z,2.91
2022-12-31T08:59:07.187Z,3.01
2022-12-31T09:02:00.395Z,3.18
2022-12-31T09:05:09.193Z,3.41
2022-12-31T09:07:44.402Z,3.65
2022-12-31T09:10:30.963Z,3.83
2022-12-31T09:13:10.454Z,3.97
2022-12-31T09:15:59.407Z,4.12
2022-12-31T09:18:33.341Z,4.26
2022-12-31T09:21:02.110Z,4.32
2022-12-31T09:23:30.795Z,4.31
2022-12-31T09:26:29.783Z,4.31
2022-12-31T09:29:16.012Z,4.39
2022-12-31T09:32:17.324Z,4.54
2022-12-31T09:35:13.152Z,4.69
2022-12-31T09:37:50.172Z,4.79
2022-12-31T09:40:58.118Z,4.82
2022-12-31T09:44:03.743Z,4.82
2022-12-31T09:47:28.744Z,4.87
2022-12-31T09:50:34.500Z,4.95
2022-12-31T09:53:41.136Z,5.02
2022-12-31T09:56:36.921Z,5.06
2022-12-31T09:59:29.707Z,5.07
2022-12-31T10:02:17.977Z,5.07
2022-12-31T10:05:11.487Z,5.07
2022-12-31T10:08:07.317Z,5.06
2022-12-31T10:10:58.856Z,5.07
2022-12-31T10:14:10.691Z,5.08
2022-12-31T10:16:59.704Z,5.07
2022-12-31T10:20:02.682Z,5.03
2022-12-31T10:22:36.799Z,4.98
2022-12-31T10:25:38.111Z,4.95
2022-12-31T10:28:43.494Z,5.00
2022-12-31T10:31:36.836Z,5.04
2022-12-31T10:34:16.246Z,5.11
2022-12-31T10:36:58.489Z,5.22
2022-12-31T10:40:04.910Z,5.31
2022-12-31T10:43:10.468Z,5.39
2022-12-31T10:46:00.208Z,5.47
2022-12-31T10:48:53.704Z,5.52
2022-12-31T10:52:05.170Z,5.54
2022-12-31T10:54:54.048Z,5.57
2022-12-31T10:57:25.182Z,5.58
2022-12-31T11:00:25.193Z,5.62
2022-12-31T11:03:41.477Z,5.70
2022-12-31T11:06:29.106Z,5.80
2022-12-31T11:09:34.756Z,5.88
2022-12-31T11:12:12.962Z,5.98
2022-12-31T11:15:12.565Z,6.08
2022-12-31T11:18:26.179Z,6.21
2022-12-31T11:21:28.212Z,6.28
2022-12-31T11:24:11.460Z,6.31
2022-12-31T11:27:18.364Z,6.40
2022-12-31T11:30:16.972Z,6.51
2022-12-31T11:33:27.309Z,6.72
2022-12-31T11:36:13.000Z,6.86
2022-12-31T11:39:15.493Z,6.87
2022-12-31T11:41:54.824Z,6.88
2022-12-31T11:44:47.331Z,6.95
2022-12-31T11:51:15.465Z,7.33
2022-12-31T11:54:24.951Z,7.60
2022-12-31T11:57:38.980Z,7.84
2022-12-31T12:00:20.574Z,8.04
2022-12-31T12:02:59.674Z,8.24
2022-12-31T12:05:36.089Z,8.38
2022-12-31T12:08:05.021Z,8.46
2022-12-31T12:11:06.907Z,8.43
2022-12-31T12:13:35.342Z,8.33
2022-12-31T12:16:08.618Z,8.22
2022-12-31T12:19:01.084Z,8.13
2022-12-31T12:21:30.084Z,8.05
2022-12-31T12:24:04.054Z,7.97
2022-12-31T12:26:38.977Z,7.99
2022-12-31T12:29:12.961Z,8.06
2022-12-31T12:31:41.313Z,8.13
2022-12-31T12:34:32.070Z,8.20
2022-12-31T12:37:01.357Z,8.23
2022-12-31T12:39:35.078Z,8.23
2022-12-31T12:42:16.254Z,8.17
2022-12-31T12:44:44.478Z,8.13
2022-12-31T12:47:18.533Z,8.15
2022-12-31T12:49:54.494Z,8.19
2022-12-31T12:52:49.260Z,8.26
2022-12-31T12:56:08.801Z,8.34
2022-12-31T12:59:02.022Z,8.29
2022-12-31T13:01:39.028Z,8.19
2022-12-31T13:04:35.064Z,8.10
2022-12-31T13:07:27.271Z,8.07
2022-12-31T13:10:16.298Z,8.08
2022-12-31T13:16:05.645Z,8.19
2022-12-31T13:19:10.420Z,8.24
2022-12-31T13:21:44.746Z,8.25
2022-12-31T13:24:58.309Z,8.25
2022-12-31T13:27:46.835Z,8.18
2022-12-31T13:30:44.439Z,8.15
2022-12-31T13:33:25.823Z,8.15
2022-12-31T13:36:03.613Z,8.16
2022-12-31T13:38:37.212Z,8.16
2022-12-31T13:41:20.727Z,8.16
2022-12-31T13:44:11.719Z,8.15
2022-12-31T13:47:22.358Z,8.14
2022-12-31T13:50:21.989Z,8.14
2022-12-31T13:53:15.186Z,8.15
2022-12-31T13:55:58.031Z,8.15
2022-12-31T13:59:05.327Z,8.15
2022-12-31T14:01:44.026Z,8.13
2022-12-31T14:04:52.330Z,8.10
2022-12-31T14:08:00.944Z,8.07
2022-12-31T14:10:59.350Z,8.04
2022-12-31T14:13:52.083Z,8.02
2022-12-31T14:16:38.603Z,8.01
2022-12-31T14:19:41.721Z,7.99
2022-12-31T14:22:25.759Z,7.97
2022-12-31T14:24:57.984Z,7.95
2022-12-31T14:27:35.909Z,7.92
2022-12-31T14:30:23.428Z,7.90
2022-12-31T14:33:25.355Z,7.88
2022-12-31T14:36:40.935Z,7.86
2022-12-31T14:39:58.567Z,7.84
2022-12-31T14:42:45.424Z,7.83
2022-12-31T14:45:38.955Z,7.82
2022-12-31T14:48:42.274Z,7.81
2022-12-31T14:51:13.072Z,7.79
2022-12-31T14:53:52.689Z,7.76
2022-12-31T14:56:45.488Z,7.72
2022-12-31T14:59:40.779Z,7.65
2022-12-31T15:02:28.365Z,7.58
2022-12-31T15:05:12.125Z,7.52
2022-12-31T15:08:14.821Z,7.48
2022-12-31T15:11:07.707Z,7.44
2022-12-31T15:14:26.153Z,7.43
2022-12-31T15:17:26.792Z,7.42
2022-12-31T15:20:18.924Z,7.41
2022-12-31T15:22:50.241Z,7.39
2022-12-31T15:25:41.685Z,7.36
2022-12-31T15:28:40.844Z,7.34
2022-12-31T15:31:20.452Z,7.32
2022-12-31T15:34:24.340Z,7.31
2022-12-31T15:36:56.552Z,7.30
2022-12-31T15:39:46.453Z,7.29
2022-12-31T15:42:49.712Z,7.29
2022-12-31T15:45:28.041Z,7.29
2022-12-31T15:48:02.127Z,7.26
2022-12-31T15:50:31.144Z,7.21
2022-12-31T15:53:04.087Z,7.17
2022-12-31T15:55:51.141Z,7.14
2022-12-31T15:58:35.946Z,7.14
2022-12-31T16:01:23.553Z,7.17
2022-12-31T16:03:57.762Z,7.20
2022-12-31T16:06:29.762Z,7.23
2022-12-31T16:08:58.781Z,7.22
2022-12-31T16:11:30.529Z,7.19
2022-12-31T16:14:00.638Z,7.18
2022-12-31T16:16:32.129Z,7.15
2022-12-31T16:19:01.186Z,7.13
2022-12-31T16:21:38.053Z,7.11
2022-12-31T16:24:32.262Z,7.11
2022-12-31T16:27:09.231Z,7.10
2022-12-31T16:29:58.113Z,7.12
2022-12-31T16:32:26.731Z,7.13
2022-12-31T16:34:55.057Z,7.13
2022-12-31T16:37:23.841Z,7.13
2022-12-31T16:39:58.153Z,7.14
2022-12-31T16:42:30.931Z,7.15
2022-12-31T16:45:16.376Z,7.12
2022-12-31T16:47:45.184Z,7.08
2022-12-31T16:50:24.519Z,7.06
2022-12-31T16:53:05.434Z,7.04
2022-12-31T16:55:36.056Z,7.03
2022-12-31T16:58:32.224Z,7.02
2022-12-31T17:01:31.478Z,7.01
2022-12-31T17:04:06.083Z,7.01
2022-12-31T17:06:34.499Z,7.03
2022-12-31T17:09:14.452Z,7.03
2022-12-31T17:11:54.300Z,7.05
2022-12-31T17:14:26.420Z,7.08
2022-12-31T17:17:04.106Z,7.04
2022-12-31T17:19:50.193Z,7.01
2022-12-31T17:22:36.670Z,7.01
2022-12-31T17:25:07.823Z,7.01
2022-12-31T17:27:38.508Z,7.02
2022-12-31T17:30:40.384Z,7.01
2022-12-31T17:33:11.768Z,7.00
2022-12-31T17:35:43.495Z,7.00
2022-12-31T17:38:17.914Z,7.00
2022-12-31T17:40:51.216Z,6.92
2022-12-31T17:43:28.732Z,6.90
2022-12-31T17:46:03.353Z,6.90
2022-12-31T17:48:32.097Z,6.91
2022-12-31T17:51:02.939Z,6.93
2022-12-31T17:53:31.321Z,6.97
2022-12-31T17:56:08.166Z,7.01
2022-12-31T17:58:43.973Z,7.05
2022-12-31T18:01:15.988Z,7.08
2022-12-31T18:03:44.491Z,7.09
2022-12-31T18:06:16.648Z,7.08
2022-12-31T18:08:45.749Z,7.09
2022-12-31T18:11:23.554Z,7.09
2022-12-31T18:13:53.939Z,7.09
2022-12-31T18:16:22.178Z,7.09
2022-12-31T18:18:50.507Z,7.09
2022-12-31T18:21:26.061Z,7.09
2022-12-31T18:26:26.418Z,7.09
2022-12-31T18:28:55.136Z,7.09
2022-12-31T18:31:27.952Z,7.09
2022-12-31T18:33:59.675Z,7.07
2022-12-31T18:36:32.011Z,7.06
2022-12-31T18:39:00.144Z,7.06
2022-12-31T18:41:38.639Z,7.05
2022-12-31T18:44:07.586Z,7.00
2022-12-31T18:46:35.788Z,6.93
2022-12-31T18:49:04.258Z,6.88
2022-12-31T18:51:32.830Z,6.80
2022-12-31T18:54:02.551Z,6.72
2022-12-31T18:56:33.854Z,6.65
2022-12-31T18:59:03.481Z,6.59
2022-12-31T19:01:37.576Z,6.56
2022-12-31T19:04:22.815Z,6.54
2022-12-31T19:06:53.323Z,6.53
2022-12-31T19:09:50.209Z,6.52
2022-12-31T19:12:14.845Z,6.50
2022-12-31T19:14:43.440Z,6.47
2022-12-31T19:17:12.391Z,6.42
2022-12-31T19:19:40.801Z,6.40
2022-12-31T19:22:15.603Z,6.40
2022-12-31T19:24:43.922Z,6.38
2022-12-31T19:27:12.322Z,6.36
2022-12-31T19:29:40.634Z,6.35
2022-12-31T19:32:08.934Z,6.35
2022-12-31T19:34:37.398Z,6.35
2022-12-31T19:37:05.603Z,6.37
2022-12-31T19:39:33.905Z,6.40
2022-12-31T19:42:02.273Z,6.43
2022-12-31T19:44:30.664Z,6.44
2022-12-31T19:46:59.316Z,6.45
2022-12-31T19:49:27.536Z,6.46
2022-12-31T19:51:55.807Z,6.47
2022-12-31T19:54:24.020Z,6.49
2022-12-31T19:56:52.278Z,6.49
2022-12-31T19:59:20.578Z,6.50
2022-12-31T20:01:49.444Z,6.50
2022-12-31T20:04:18.265Z,6.51
2022-12-31T20:06:46.433Z,6.52
2022-12-31T20:09:14.855Z,6.53
2022-12-31T20:11:43.139Z,6.54
2022-12-31T20:14:12.134Z,6.55
2022-12-31T20:16:40.483Z,6.57
2022-12-31T20:19:10.581Z,6.57
2022-12-31T20:21:38.953Z,6.57
2022-12-31T20:24:07.996Z,6.56
2022-12-31T20:26:36.449Z,6.56
2022-12-31T20:29:04.678Z,6.55
2022-12-31T20:31:33.065Z,6.56
2022-12-31T20:34:01.307Z,6.57
2022-12-31T20:36:29.721Z,6.58
2022-12-31T20:38:58.796Z,6.58
2022-12-31T20:41:27.498Z,6.57
2022-12-31T20:43:55.796Z,6.57
2022-12-31T20:46:27.899Z,6.57
2022-12-31T20:49:02.026Z,6.56
2022-12-31T20:51:33.527Z,6.56
2022-12-31T20:54:11.842Z,6.57
2022-12-31T20:56:42.064Z,6.57
2022-12-31T20:59:11.034Z,6.58
2022-12-31T21:02:11.803Z,6.58
2022-12-31T21:04:27.892Z,6.61
2022-12-31T21:06:56.496Z,6.62
2022-12-31T21:09:25.086Z,6.62
2022-12-31T21:12:12.160Z,6.62
2022-12-31T21:14:44.734Z,6.62
2022-12-31T21:17:13.360Z,6.62
2022-12-31T21:19:41.605Z,6.61
2022-12-31T21:22:09.970Z,6.60
2022-12-31T21:24:39.279Z,6.60
2022-12-31T21:27:07.975Z,6.60
2022-12-31T21:29:50.379Z,6.60
2022-12-31T21:32:25.623Z,6.61
2022-12-31T21:35:23.221Z,6.62
2022-12-31T21:37:59.342Z,6.63
2022-12-31T21:40:30.759Z,6.63
2022-12-31T21:43:00.222Z,6.62
2022-12-31T21:45:28.754Z,6.62
2022-12-31T21:48:19.449Z,6.64
2022-12-31T21:50:50.491Z,6.67
2022-12-31T21:53:26.183Z,6.70
2022-12-31T21:56:09.443Z,6.73
2022-12-31T21:58:47.477Z,6.73
2022-12-31T22:01:40.669Z,6.73
2022-12-31T22:04:28.242Z,6.73
2022-12-31T22:06:57.923Z,6.73
2022-12-31T22:09:26.397Z,6.72
2022-12-31T22:11:54.963Z,6.72
2022-12-31T22:14:23.332Z,6.72
2022-12-31T22:16:52.380Z,6.74
2022-12-31T22:19:20.913Z,6.75
2022-12-31T22:21:49.215Z,6.75
2022-12-31T22:24:17.743Z,6.77
2022-12-31T22:26:46.955Z,6.78
2022-12-31T22:29:15.560Z,6.78
2022-12-31T22:31:43.962Z,6.79
2022-12-31T22:34:12.394Z,6.79
2022-12-31T22:36:40.718Z,6.79
2022-12-31T22:39:44.674Z,6.79
2022-12-31T22:42:04.437Z,6.79
2022-12-31T22:44:32.839Z,6.81
2022-12-31T22:47:01.365Z,6.83
2022-12-31T22:49:30.051Z,6.85
2022-12-31T22:52:01.713Z,6.85
2022-12-31T22:54:32.844Z,6.84
2022-12-31T22:57:02.800Z,6.84
2022-12-31T22:59:31.404Z,6.83
2022-12-31T23:01:59.883Z,6.83
2022-12-31T23:04:28.278Z,6.82
2022-12-31T23:06:56.831Z,6.80
2022-12-31T23:09:43.894Z,6.79
2022-12-31T23:12:12.299Z,6.77
2022-12-31T23:14:59.286Z,6.75
2022-12-31T23:17:46.674Z,6.74
2022-12-31T23:20:38.275Z,6.74
2022-12-31T23:23:11.759Z,6.71
2022-12-31T23:25:52.109Z,6.69
2022-12-31T23:28:25.776Z,6.67
2022-12-31T23:30:54.515Z,6.66
2022-12-31T23:33:25.779Z,6.67
2022-12-31T23:36:07.832Z,6.67
2022-12-31T23:38:36.309Z,6.67
2022-12-31T23:41:16.777Z,6.68
2022-12-31T23:43:46.064Z,6.68
2022-12-31T23:46:16.622Z,6.68
2022-12-31T23:48:45.093Z,6.68
2022-12-31T23:51:13.423Z,6.68
2022-12-31T23:53:41.809Z,6.67
2022-12-31T23:56:23.274Z,6.66
2022-12-31T23:58:57.307Z,6.67
